Pagrindinis puslapis
METAR-TAF:

METAR-TAF

Oro uostai :

Omak Airport

Omak, Vašingtonas, Jungtinės Amerikos Valstijos

platuma: 48-27-51N, ilguma: 119-31-05W, Aukštis: 397 m

Dabartinis oras

Ataskaita buvo paskelbta 40 minutes, ne 12:53 UTC
Vėjas 7 kt iš Šiaurės
Temperatūra -4°C
Drėgmė 68%
Slėgis 1031 hPa
Matomumas: 16.1 km
Giedras dangus

METAR: KOMK 191253Z AUTO 01007KT 10SM CLR M04/M09 A3045 RMK AO2 SLP326 T10441094 $

Laikas: 05:33 (13:33 UTC)


TAF: trūkstamas

Orai ataskaitas ir orų prognozės (METAR, TAF).

turimą stotys yra geltonos ir raudonos taškus žemėlapyje.

Perkelti pele per norėdami pamatyti stoties vardą.

Tada spustelėkite, norėdami matyti oro stebėjimo ir prognozės.

Norėdami pakeisti žemėlapį: spustelėkite ant žalios mygtukų su juodo kryžiaus žemyn,; žalią mygtuką su brūkšneliu, jei norite nutolinti; arba žalių rodyklių gretimoms žemėlapius.


METAR-TAF: